Time;durP1;ratioP1;P1;durP2;ratioP2;P2;SDS_P1;SDS_P2;PMS_P1;PMS_P2;Temp;Humidity;BMP_temperature;BMP_pressure;BME280_temperature;BME280_humidity;BME280_pressure;Samples;Min_cycle;Max_cycle;Signal;HPM_P1;HPM_P2
2022/12/28 00:01:24;;;;;;;10.02;2.10;;;7.30;99.90;;;;;;4972935;28;20484;-89
2022/12/28 00:03:51;;;;;;;8.40;1.60;;;7.20;99.90;;;;;;4972620;28;20570;-91
2022/12/28 00:06:18;;;;;;;8.38;2.05;;;7.20;99.90;;;;;;4973899;28;20030;-90
2022/12/28 00:08:44;;;;;;;8.07;2.00;;;7.20;99.90;;;;;;4972313;28;20035;-90
2022/12/28 00:11:14;;;;;;;11.05;2.92;;;7.20;99.90;;;;;;4972085;28;20117;-90
2022/12/28 00:13:40;;;;;;;7.00;1.80;;;7.20;99.90;;;;;;4974431;28;20030;-89
2022/12/28 00:16:12;;;;;;;7.03;1.67;;;7.20;99.90;;;;;;4975866;28;20478;-90
2022/12/28 00:18:37;;;;;;;8.60;1.80;;;7.20;99.90;;;;;;4978352;28;20022;-90
2022/12/28 00:21:04;;;;;;;5.68;1.13;;;7.10;99.90;;;;;;4975653;28;20042;-89
2022/12/28 00:23:30;;;;;;;8.07;1.50;;;7.20;99.90;;;;;;4994223;28;20021;-90
2022/12/28 00:26:05;;;;;;;5.40;1.17;;;7.20;99.90;;;;;;4995979;28;20026;-90
2022/12/28 00:28:30;;;;;;;4.93;1.00;;;7.20;99.90;;;;;;4977053;28;20026;-90
2022/12/28 00:30:56;;;;;;;5.20;0.70;;;7.20;99.90;;;;;;4975549;28;20125;-90
2022/12/28 00:33:22;;;;;;;2.50;0.77;;;7.30;99.90;;;;;;4975931;28;20093;-90
2022/12/28 00:35:59;;;;;;;4.20;0.88;;;7.20;99.90;;;;;;4975380;28;20118;-90
2022/12/28 00:38:26;;;;;;;2.30;0.65;;;7.30;99.90;;;;;;4974816;28;20019;-90
2022/12/28 00:40:51;;;;;;;5.38;1.13;;;7.30;99.90;;;;;;4975109;28;20035;-90
2022/12/28 00:43:17;;;;;;;5.13;1.20;;;7.30;99.90;;;;;;4975282;28;20088;-90
2022/12/28 00:45:44;;;;;;;4.82;1.13;;;7.30;99.90;;;;;;4978254;28;20092;-90
2022/12/28 00:48:10;;;;;;;5.40;0.88;;;7.30;99.90;;;;;;4975126;28;20030;-90
2022/12/28 00:50:36;;;;;;;2.88;0.90;;;7.30;99.90;;;;;;4994362;28;20813;-90
2022/12/28 00:53:01;;;;;;;3.10;1.20;;;7.30;99.90;;;;;;4975307;28;20022;-90
2022/12/28 00:55:27;;;;;;;6.93;1.35;;;7.30;99.90;;;;;;4976306;28;20507;-90
2022/12/28 00:57:53;;;;;;;3.10;1.23;;;7.30;99.90;;;;;;4974797;28;20497;-90
2022/12/28 01:00:18;;;;;;;7.20;1.50;;;7.30;99.90;;;;;;4972555;28;20113;-90
2022/12/28 01:02:44;;;;;;;6.75;1.70;;;7.30;99.90;;;;;;4974899;28;20591;-90
2022/12/28 01:05:10;;;;;;;14.07;3.30;;;7.30;99.90;;;;;;4974824;28;20037;-90
2022/12/28 01:07:35;;;;;;;12.82;1.63;;;7.30;99.90;;;;;;4977093;28;20015;-90
2022/12/28 01:10:01;;;;;;;10.40;1.40;;;7.30;99.90;;;;;;4974819;28;20030;-90
2022/12/28 01:12:28;;;;;;;10.13;1.67;;;7.20;99.90;;;;;;4975912;28;20022;-91
2022/12/28 01:14:54;;;;;;;9.63;1.70;;;7.20;99.90;;;;;;4974846;28;20038;-90
2022/12/28 01:17:19;;;;;;;6.40;1.33;;;7.20;99.90;;;;;;4974558;28;20465;-90
2022/12/28 01:19:45;;;;;;;5.18;1.02;;;7.20;99.90;;;;;;4974331;28;20035;-91
2022/12/28 01:22:13;;;;;;;9.07;1.55;;;7.20;99.90;;;;;;4974602;28;20470;-90
2022/12/28 01:24:38;;;;;;;11.80;1.55;;;7.20;99.90;;;;;;4974517;28;20108;-90
2022/12/28 01:27:04;;;;;;;11.52;1.98;;;7.10;99.90;;;;;;4974810;28;20054;-90
2022/12/28 01:29:31;;;;;;;19.23;2.00;;;7.10;99.90;;;;;;4975906;28;20018;-89
2022/12/28 01:31:57;;;;;;;11.98;2.03;;;7.10;99.90;;;;;;4974791;28;20563;-89
2022/12/28 01:34:22;;;;;;;8.30;1.58;;;7.00;99.90;;;;;;4974909;28;20030;-90
2022/12/28 01:36:48;;;;;;;11.85;1.70;;;7.00;99.90;;;;;;4975316;28;20432;-89
2022/12/28 01:39:14;;;;;;;10.98;1.98;;;7.00;99.90;;;;;;4974815;28;20494;-90
2022/12/28 01:41:41;;;;;;;13.98;1.70;;;6.90;99.90;;;;;;4976601;28;20087;-90
2022/12/28 01:44:09;;;;;;;13.75;1.90;;;6.90;99.90;;;;;;4974533;28;20073;-89
2022/12/28 01:46:43;;;;;;;11.50;1.33;;;6.80;99.90;;;;;;4976459;28;20495;-90
2022/12/28 01:49:28;;;;;;;10.02;1.60;;;6.80;99.90;;;;;;4973987;28;20117;-88
2022/12/28 01:52:02;;;;;;;11.75;1.80;;;6.70;99.90;;;;;;4975290;28;20046;-89
2022/12/28 01:54:32;;;;;;;9.05;1.70;;;6.70;99.90;;;;;;4986525;28;20098;-90
2022/12/28 01:56:58;;;;;;;9.18;1.63;;;6.60;99.90;;;;;;4973786;28;20084;-90
2022/12/28 01:59:29;;;;;;;10.43;2.30;;;6.60;99.90;;;;;;4974421;28;20043;-89
2022/12/28 02:01:55;;;;;;;10.43;1.70;;;6.60;99.90;;;;;;4994251;28;20105;-90
2022/12/28 02:04:23;;;;;;;7.82;1.63;;;6.50;99.90;;;;;;4973765;28;20085;-90
2022/12/28 02:06:48;;;;;;;15.13;1.85;;;6.50;99.90;;;;;;4973520;28;20035;-89
2022/12/28 02:09:33;;;;;;;11.73;1.50;;;6.50;99.90;;;;;;4973419;28;20030;-90
2022/12/28 02:12:00;;;;;;;11.88;3.00;;;6.40;99.90;;;;;;4973134;28;20027;-90
2022/12/28 02:14:26;;;;;;;15.20;1.77;;;6.40;99.90;;;;;;4973912;28;20099;-89
2022/12/28 02:16:53;;;;;;;21.83;4.25;;;6.40;99.90;;;;;;4973684;28;20086;-89
2022/12/28 02:19:32;;;;;;;10.57;1.63;;;6.40;99.90;;;;;;4973288;28;20109;-89
2022/12/28 02:21:57;;;;;;;12.38;1.85;;;6.40;99.90;;;;;;4973186;28;20046;-89
2022/12/28 02:24:32;;;;;;;17.15;2.10;;;6.30;99.90;;;;;;4973641;28;20027;-90
2022/12/28 02:27:26;;;;;;;14.05;1.88;;;6.30;99.90;;;;;;4973498;28;20054;-89
2022/12/28 02:29:58;;;;;;;13.68;2.15;;;6.20;99.90;;;;;;4972406;28;20038;-90
2022/12/28 02:32:24;;;;;;;13.93;2.05;;;6.20;99.90;;;;;;4993466;28;20472;-90
2022/12/28 02:35:11;;;;;;;11.77;2.00;;;6.10;99.90;;;;;;4972977;28;20081;-90
2022/12/28 02:37:49;;;;;;;8.80;1.60;;;6.10;99.90;;;;;;4975543;28;20090;-90
2022/12/28 02:40:20;;;;;;;10.98;2.00;;;6.00;99.90;;;;;;4972548;28;20038;-89
2022/12/28 02:42:47;;;;;;;16.50;2.55;;;6.00;99.90;;;;;;4968018;28;20046;-91
2022/12/28 02:51:12;;;;;;;15.23;2.38;;;5.90;99.90;;;;;;4996420;28;20088;-90
2022/12/28 02:53:48;;;;;;;13.23;2.53;;;5.80;99.90;;;;;;4976995;28;20030;-89
2022/12/28 02:56:25;;;;;;;7.60;1.77;;;5.80;99.90;;;;;;4974455;28;20452;-90
2022/12/28 02:59:00;;;;;;;16.73;2.63;;;5.70;99.90;;;;;;4972312;28;20035;-90
2022/12/28 03:01:45;;;;;;;7.95;1.50;;;5.70;99.90;;;;;;4973494;28;20054;-91
2022/12/28 03:04:44;;;;;;;10.40;1.75;;;5.70;99.90;;;;;;4972977;28;20038;-89
2022/12/28 03:10:16;;;;;;;10.70;1.50;;;5.60;99.90;;;;;;4988765;28;20591;-90
2022/12/28 03:13:00;;;;;;;15.68;1.83;;;5.60;99.90;;;;;;4975613;28;20472;-89
2022/12/28 03:15:36;;;;;;;10.70;2.00;;;5.60;99.90;;;;;;4993081;28;20038;-89
2022/12/28 03:32:29;;;;;;;11.00;1.73;;;5.40;99.90;;;;;;4994039;28;20041;-90
2022/12/28 03:34:55;;;;;;;18.02;1.70;;;5.40;99.90;;;;;;4972928;28;20031;-90
2022/12/28 03:37:55;;;;;;;14.07;1.90;;;5.40;99.90;;;;;;4972802;28;20030;-90
2022/12/28 03:40:30;;;;;;;11.13;2.13;;;5.40;99.90;;;;;;4959013;28;20051;-89
2022/12/28 03:45:46;;;;;;;8.00;1.77;;;5.40;99.90;;;;;;4992637;28;20083;-90
2022/12/28 03:48:12;;;;;;;13.40;1.67;;;5.40;99.90;;;;;;4973765;28;20130;-90
2022/12/28 03:50:41;;;;;;;12.50;1.95;;;5.40;99.90;;;;;;4978764;28;20547;-91
2022/12/28 03:53:08;;;;;;;14.90;1.48;;;5.40;99.90;;;;;;4976272;28;20033;-90
2022/12/28 03:55:36;;;;;;;10.70;1.90;;;5.40;99.90;;;;;;4977817;28;20050;-90
2022/12/28 03:58:03;;;;;;;11.30;1.77;;;5.40;99.90;;;;;;4976531;28;20030;-89
2022/12/28 04:00:29;;;;;;;9.85;1.77;;;5.40;99.90;;;;;;4977562;28;20045;-91
2022/12/28 04:02:55;;;;;;;9.38;1.40;;;5.40;99.90;;;;;;4975860;28;20031;-90
2022/12/28 04:05:20;;;;;;;17.20;1.85;;;5.40;99.90;;;;;;4976295;28;20089;-90
2022/12/28 04:07:46;;;;;;;22.30;2.10;;;5.40;99.90;;;;;;4975922;28;20629;-91
2022/12/28 04:10:12;;;;;;;10.98;1.70;;;5.40;99.90;;;;;;4976002;28;20022;-91
2022/12/28 04:12:37;;;;;;;9.68;2.03;;;5.40;99.90;;;;;;4978006;28;20116;-90
2022/12/28 04:15:04;;;;;;;10.85;2.13;;;5.40;99.90;;;;;;4975309;28;20031;-89
2022/12/28 04:17:30;;;;;;;15.70;1.63;;;5.40;99.90;;;;;;4977376;28;20039;-90
2022/12/28 04:19:56;;;;;;;6.82;1.30;;;5.40;99.90;;;;;;4996509;28;20034;-90
2022/12/28 04:22:21;;;;;;;12.27;1.67;;;5.40;99.90;;;;;;4976228;28;20162;-90
2022/12/28 04:24:47;;;;;;;7.60;1.33;;;5.40;99.90;;;;;;4975377;28;20035;-90
2022/12/28 04:27:12;;;;;;;9.10;2.20;;;5.40;99.90;;;;;;4975599;28;20265;-90
2022/12/28 04:29:38;;;;;;;13.85;2.30;;;5.40;99.90;;;;;;4977419;28;20022;-90
2022/12/28 04:32:04;;;;;;;11.50;1.40;;;5.40;99.90;;;;;;4995719;28;20033;-90
2022/12/28 04:34:30;;;;;;;15.02;2.67;;;5.50;99.90;;;;;;4977788;28;20097;-90
2022/12/28 04:36:55;;;;;;;10.00;1.38;;;5.50;99.90;;;;;;4975667;28;20568;-90
2022/12/28 04:39:21;;;;;;;15.98;2.47;;;5.50;99.90;;;;;;4975228;28;20037;-90
2022/12/28 04:41:47;;;;;;;10.32;1.45;;;5.50;99.90;;;;;;5007485;28;20073;-89
2022/12/28 04:44:12;;;;;;;13.00;1.88;;;5.50;99.90;;;;;;5001156;28;20027;-90
2022/12/28 04:46:38;;;;;;;17.20;2.30;;;5.50;99.90;;;;;;4977392;28;20023;-91
2022/12/28 04:49:04;;;;;;;17.35;2.42;;;5.50;99.90;;;;;;4979085;28;20514;-91
2022/12/28 04:51:30;;;;;;;9.43;1.80;;;5.50;99.90;;;;;;4978993;28;20034;-90
2022/12/28 04:53:56;;;;;;;14.65;2.10;;;5.50;99.90;;;;;;4979715;28;20022;-91
2022/12/28 04:56:23;;;;;;;13.27;1.77;;;5.50;99.90;;;;;;4980499;28;20073;-92
2022/12/28 04:58:56;;;;;;;8.50;2.10;;;5.60;99.90;;;;;;4991822;28;20026;-90
2022/12/28 05:01:22;;;;;;;9.50;1.70;;;5.50;99.90;;;;;;5012155;28;20093;-90
2022/12/28 05:03:48;;;;;;;14.60;1.50;;;5.50;99.90;;;;;;5000893;28;20500;-90
2022/12/28 05:06:18;;;;;;;15.30;1.88;;;5.50;99.90;;;;;;4995283;28;20030;-91
2022/12/28 05:08:44;;;;;;;11.95;2.03;;;5.50;99.90;;;;;;4995595;28;20054;-90
2022/12/28 05:11:22;;;;;;;15.05;1.88;;;5.50;99.90;;;;;;4975342;28;20045;-90
2022/12/28 05:13:48;;;;;;;10.88;2.17;;;5.50;99.90;;;;;;4978231;28;20037;-90
2022/12/28 05:16:17;;;;;;;14.48;2.67;;;5.50;99.90;;;;;;4977776;28;20068;-91
2022/12/28 05:18:43;;;;;;;10.90;1.90;;;5.50;99.90;;;;;;4977528;28;20030;-90
2022/12/28 05:21:15;;;;;;;17.90;2.20;;;5.50;99.90;;;;;;4978091;28;20031;-89
2022/12/28 05:23:42;;;;;;;11.57;3.53;;;5.50;99.90;;;;;;4977435;28;20099;-89
2022/12/28 05:26:10;;;;;;;16.52;2.55;;;5.50;99.90;;;;;;4974380;28;20050;-90
2022/12/28 05:28:36;;;;;;;14.20;2.83;;;5.40;99.90;;;;;;4976698;28;20026;-90
2022/12/28 05:31:04;;;;;;;18.45;3.58;;;5.50;99.90;;;;;;4974468;28;20035;-91
2022/12/28 05:33:34;;;;;;;19.08;3.60;;;5.50;99.90;;;;;;4975708;28;20078;-90
2022/12/28 05:36:08;;;;;;;18.60;2.88;;;5.50;99.90;;;;;;4974658;28;20019;-88
2022/12/28 05:38:35;;;;;;;11.35;2.47;;;5.50;99.90;;;;;;4976003;28;20392;-91
2022/12/28 05:41:09;;;;;;;18.70;3.25;;;5.50;99.90;;;;;;4974075;28;20217;-91
2022/12/28 05:43:35;;;;;;;15.43;3.75;;;5.50;99.90;;;;;;4975885;28;20058;-91
2022/12/28 05:46:07;;;;;;;16.85;2.70;;;5.50;99.90;;;;;;4974022;28;20034;-91
2022/12/28 05:48:35;;;;;;;13.10;2.30;;;5.50;99.90;;;;;;4976260;28;20239;-89
2022/12/28 05:51:02;;;;;;;19.27;2.85;;;5.50;99.90;;;;;;4975195;28;20035;-90
2022/12/28 05:53:29;;;;;;;17.67;2.55;;;5.50;99.90;;;;;;4976352;28;20034;-89
2022/12/28 05:56:03;;;;;;;10.65;3.03;;;5.50;99.90;;;;;;4974538;28;20035;-90
2022/12/28 05:58:29;;;;;;;16.30;2.70;;;5.50;99.90;;;;;;5000239;28;20046;-89
2022/12/28 06:01:22;;;;;;;17.27;4.35;;;5.50;99.90;;;;;;4980957;28;20042;-90
2022/12/28 06:03:53;;;;;;;15.07;2.75;;;5.50;99.90;;;;;;4978090;28;20039;-90
2022/12/28 06:06:19;;;;;;;12.57;2.47;;;5.50;99.90;;;;;;4978680;28;20040;-89
2022/12/28 06:08:46;;;;;;;26.48;2.75;;;5.50;99.90;;;;;;4996260;28;20037;-92
2022/12/28 06:11:15;;;;;;;14.60;3.25;;;5.50;99.90;;;;;;4973019;28;20109;-90
2022/12/28 06:13:41;;;;;;;10.73;2.80;;;5.60;99.90;;;;;;4976614;28;20045;-90
2022/12/28 06:16:17;;;;;;;17.15;2.92;;;5.60;99.90;;;;;;4973716;28;20784;-93
2022/12/28 06:18:44;;;;;;;13.48;2.40;;;5.70;99.90;;;;;;4977136;28;20117;-90
2022/12/28 06:21:16;;;;;;;15.88;2.85;;;5.60;99.90;;;;;;4993987;28;20038;-91
2022/12/28 06:23:42;;;;;;;13.07;2.88;;;5.60;99.90;;;;;;4976963;28;20026;-90
2022/12/28 06:26:11;;;;;;;14.35;2.65;;;5.60;99.90;;;;;;4974048;28;20646;-90
2022/12/28 06:28:37;;;;;;;17.15;3.00;;;5.60;99.90;;;;;;4976051;28;20031;-92
2022/12/28 06:31:04;;;;;;;12.35;2.80;;;5.70;99.90;;;;;;4973354;28;20034;-90
2022/12/28 06:33:29;;;;;;;15.52;2.72;;;5.70;99.90;;;;;;4974874;28;20037;-89
2022/12/28 06:35:55;;;;;;;14.45;3.25;;;5.70;99.90;;;;;;4994487;28;20022;-91
2022/12/28 06:38:21;;;;;;;18.92;2.75;;;5.70;99.90;;;;;;4973727;28;20085;-89
2022/12/28 06:40:46;;;;;;;15.45;3.72;;;5.70;99.90;;;;;;4973519;28;20044;-89
2022/12/28 06:43:12;;;;;;;16.65;3.88;;;5.70;99.90;;;;;;4973172;28;20050;-90
2022/12/28 06:45:37;;;;;;;14.68;3.47;;;5.70;99.90;;;;;;4978878;28;20081;-90
2022/12/28 06:48:03;;;;;;;18.20;3.50;;;5.70;99.90;;;;;;4982816;28;20034;-90
2022/12/28 06:50:29;;;;;;;14.25;2.80;;;5.70;99.90;;;;;;4983866;28;20035;-89
2022/12/28 06:52:55;;;;;;;15.32;2.50;;;5.70;99.90;;;;;;4981667;28;20054;-89
2022/12/28 06:55:20;;;;;;;18.67;2.45;;;5.60;99.90;;;;;;4983447;28;20437;-90
2022/12/28 06:57:46;;;;;;;15.35;2.33;;;5.60;99.90;;;;;;4981385;28;20022;-89
2022/12/28 07:00:12;;;;;;;11.75;2.38;;;5.60;99.90;;;;;;4996661;28;20086;-90
2022/12/28 07:02:38;;;;;;;13.48;2.10;;;5.60;99.90;;;;;;4980593;28;20027;-90
2022/12/28 07:05:03;;;;;;;15.77;2.25;;;5.60;99.90;;;;;;4995252;28;20037;-90
2022/12/28 07:07:29;;;;;;;11.98;2.25;;;5.60;99.90;;;;;;4976543;28;20026;-90
2022/12/28 07:09:55;;;;;;;15.57;2.28;;;5.60;99.90;;;;;;4974396;28;20023;-90
2022/12/28 07:12:20;;;;;;;10.52;2.00;;;5.60;99.90;;;;;;4974712;28;20046;-90
2022/12/28 07:14:46;;;;;;;14.52;2.33;;;5.60;99.90;;;;;;4974303;28;20085;-90
2022/12/28 07:17:12;;;;;;;11.45;1.75;;;5.60;99.90;;;;;;4974354;28;20030;-91
2022/12/28 07:19:37;;;;;;;12.82;1.83;;;5.60;99.90;;;;;;4976128;28;20487;-90
2022/12/28 07:22:03;;;;;;;20.55;1.98;;;5.60;99.90;;;;;;4997228;28;20588;-90
2022/12/28 07:24:29;;;;;;;7.00;1.92;;;5.60;99.90;;;;;;4972800;28;20019;-90
2022/12/28 07:26:54;;;;;;;13.75;2.08;;;5.60;99.90;;;;;;4997894;28;20130;-90
2022/12/28 07:29:20;;;;;;;6.78;1.63;;;5.60;99.90;;;;;;4998570;28;20492;-91
2022/12/28 07:31:45;;;;;;;9.40;2.08;;;5.60;99.90;;;;;;4977308;28;20027;-90
2022/12/28 07:34:13;;;;;;;12.45;2.58;;;5.60;99.90;;;;;;4977153;28;20030;-91
2022/12/28 07:36:39;;;;;;;11.75;3.03;;;5.60;99.90;;;;;;4976731;28;20034;-92
2022/12/28 07:39:04;;;;;;;13.93;1.88;;;5.60;99.90;;;;;;4976566;28;20027;-90
2022/12/28 07:41:32;;;;;;;20.60;2.08;;;5.60;99.90;;;;;;4974475;28;20031;-90
2022/12/28 07:43:59;;;;;;;14.27;1.67;;;5.70;99.90;;;;;;4998251;28;20031;-90
2022/12/28 07:46:30;;;;;;;7.97;1.90;;;5.60;99.90;;;;;;4973954;28;20034;-90
2022/12/28 07:48:56;;;;;;;10.57;2.58;;;5.60;99.90;;;;;;4970807;28;20026;-90
2022/12/28 07:51:28;;;;;;;14.50;2.80;;;5.70;99.90;;;;;;4973663;28;20146;-90
2022/12/28 07:53:55;;;;;;;6.45;1.55;;;5.60;99.90;;;;;;4991620;28;20034;-89
2022/12/28 07:56:22;;;;;;;13.23;2.03;;;5.70;99.90;;;;;;4997407;28;20025;-91
2022/12/28 07:58:49;;;;;;;15.63;1.98;;;5.70;99.90;;;;;;4997054;28;20058;-91
2022/12/28 08:01:18;;;;;;;15.07;1.98;;;5.70;99.90;;;;;;4998521;28;20104;-91
2022/12/28 08:03:44;;;;;;;12.07;2.45;;;5.70;99.90;;;;;;5001138;28;20481;-90
2022/12/28 08:06:17;;;;;;;15.50;1.95;;;5.70;99.90;;;;;;4968614;28;20038;-90
2022/12/28 08:08:44;;;;;;;16.35;2.65;;;5.70;99.90;;;;;;4999995;28;20035;-91
2022/12/28 08:11:12;;;;;;;11.50;2.33;;;5.70;99.90;;;;;;4969128;28;20113;-91
2022/12/28 08:13:40;;;;;;;15.13;2.13;;;5.60;99.90;;;;;;4990049;28;20079;-90
2022/12/28 08:16:08;;;;;;;8.70;1.90;;;5.70;99.90;;;;;;4971679;28;20031;-91
2022/12/28 08:18:33;;;;;;;10.75;1.75;;;5.60;99.90;;;;;;4972696;28;20125;-92
2022/12/28 08:21:27;;;;;;;12.30;1.88;;;5.60;99.90;;;;;;4973326;28;20138;-92
2022/12/28 08:23:53;;;;;;;10.02;1.65;;;5.70;99.90;;;;;;4962482;28;20030;-91
2022/12/28 08:26:22;;;;;;;10.57;2.80;;;5.70;99.90;;;;;;4997624;28;20027;-91
2022/12/28 08:28:51;;;;;;;8.25;2.45;;;5.70;99.90;;;;;;4997680;28;20030;-90
2022/12/28 08:31:22;;;;;;;8.73;2.00;;;5.70;99.90;;;;;;4973742;28;20050;-93
2022/12/28 08:33:49;;;;;;;16.45;2.10;;;5.60;99.90;;;;;;4999624;28;20496;-91
2022/12/28 08:36:15;;;;;;;10.23;1.80;;;5.70;99.90;;;;;;5000318;28;20022;-91
2022/12/28 08:38:42;;;;;;;9.48;2.60;;;5.70;99.90;;;;;;4999734;28;20034;-92
2022/12/28 08:41:15;;;;;;;12.02;2.20;;;5.70;99.90;;;;;;4975558;28;20124;-91
2022/12/28 08:43:41;;;;;;;6.18;2.38;;;5.70;99.90;;;;;;4979183;28;20504;-90
2022/12/28 08:46:13;;;;;;;9.18;2.55;;;5.70;99.90;;;;;;4979519;28;20026;-90
2022/12/28 08:48:39;;;;;;;9.93;2.50;;;5.70;99.90;;;;;;4977069;28;20019;-90
2022/12/28 08:51:08;;;;;;;9.18;2.83;;;5.70;99.90;;;;;;4975929;28;20041;-92
2022/12/28 08:53:35;;;;;;;12.60;2.47;;;5.70;99.90;;;;;;4978025;28;20031;-90
2022/12/28 08:56:06;;;;;;;8.32;2.50;;;5.70;99.90;;;;;;4980539;28;20028;-89
2022/12/28 08:58:31;;;;;;;;;;;5.70;99.90;;;;;;4980580;28;20019;-89
2022/12/28 09:01:27;;;;;;;7.85;2.65;;;5.80;99.90;;;;;;4977675;28;19920;-90
2022/12/28 09:03:55;;;;;;;10.60;3.90;;;5.80;99.90;;;;;;4981114;28;20396;-91
2022/12/28 09:06:30;;;;;;;6.72;3.38;;;5.80;99.90;;;;;;4985085;28;20113;-96
2022/12/28 09:08:58;;;;;;;14.85;3.47;;;5.80;99.90;;;;;;5020653;28;20011;-92
2022/12/28 09:11:24;;;;;;;7.97;3.58;;;5.80;99.90;;;;;;5013561;28;20018;-93
2022/12/28 09:13:50;;;;;;;10.00;3.67;;;5.90;99.90;;;;;;4994069;28;20030;-95
2022/12/28 09:16:24;;;;;;;9.55;3.70;;;5.90;99.90;;;;;;5018094;28;20022;-95
2022/12/28 09:18:53;;;;;;;10.52;4.07;;;5.80;99.90;;;;;;4998696;28;20023;-93
2022/12/28 09:21:20;;;;;;;7.90;3.38;;;5.90;99.90;;;;;;5018269;28;20035;-90
2022/12/28 09:23:47;;;;;;;9.98;3.33;;;5.90;99.90;;;;;;4990187;28;20027;-92
2022/12/28 09:26:21;;;;;;;10.98;3.80;;;5.90;99.90;;;;;;5019114;28;20031;-93
2022/12/28 09:28:49;;;;;;;9.77;3.35;;;5.90;99.90;;;;;;5011953;28;20607;-94
2022/12/28 09:31:15;;;;;;;8.48;3.67;;;6.00;99.90;;;;;;5011084;28;20500;-95
2022/12/28 09:36:26;;;;;;;9.57;3.63;;;6.00;99.90;;;;;;5006827;28;20376;-95
2022/12/28 09:38:52;;;;;;;7.60;3.63;;;6.00;99.90;;;;;;5012191;28;20026;-93
2022/12/28 09:41:27;;;;;;;8.32;2.97;;;6.00;99.90;;;;;;4982614;28;20126;-95
2022/12/28 09:44:22;;;;;;;5.03;2.85;;;6.10;99.90;;;;;;4983018;28;20042;-94
2022/12/28 09:46:57;;;;;;;4.80;2.95;;;6.10;99.90;;;;;;4986903;28;20035;-94
2022/12/28 09:49:37;;;;;;;5.57;3.00;;;6.10;99.90;;;;;;5006552;28;20014;-95
2022/12/28 09:52:26;;;;;;;6.13;2.83;;;6.20;99.90;;;;;;4987263;28;20090;-95
2022/12/28 09:54:55;;;;;;;6.07;3.30;;;6.20;99.90;;;;;;4993599;28;20097;-93
2022/12/28 09:57:21;;;;;;;6.28;2.95;;;6.30;99.90;;;;;;4991248;28;20112;-92
2022/12/28 09:59:49;;;;;;;7.88;2.55;;;6.30;99.90;;;;;;4989681;28;20015;-94
2022/12/28 10:02:25;;;;;;;4.40;2.60;;;6.30;99.90;;;;;;4989416;28;20026;-93
2022/12/28 10:04:52;;;;;;;6.43;2.67;;;6.40;99.90;;;;;;4997775;28;20011;-94
2022/12/28 10:07:18;;;;;;;5.47;2.90;;;6.40;99.90;;;;;;4993814;28;20035;-92
2022/12/28 10:09:45;;;;;;;4.20;2.22;;;6.50;99.90;;;;;;5018177;28;20027;-94
2022/12/28 10:12:18;;;;;;;5.82;2.10;;;6.50;99.90;;;;;;5009112;28;20026;-92
2022/12/28 10:14:46;;;;;;;3.75;1.60;;;6.50;99.90;;;;;;4985051;28;20031;-92
2022/12/28 10:17:17;;;;;;;3.53;1.70;;;6.60;99.90;;;;;;4990766;28;20054;-92
2022/12/28 10:19:44;;;;;;;;;;;6.60;99.90;;;;;;5006273;28;20030;-94
2022/12/28 10:22:18;;;;;;;1.83;1.42;;;6.70;99.90;;;;;;4986409;28;19906;-94
2022/12/28 10:24:46;;;;;;;2.38;1.52;;;6.70;99.90;;;;;;4985653;28;20015;-94
2022/12/28 10:27:28;;;;;;;1.67;1.13;;;6.80;99.90;;;;;;4988116;28;20038;-95
2022/12/28 10:29:58;;;;;;;0.98;0.80;;;6.90;99.90;;;;;;4991039;28;20031;-92
2022/12/28 10:32:23;;;;;;;2.13;1.00;;;6.90;99.90;;;;;;5009668;28;20476;-94
2022/12/28 10:34:59;;;;;;;1.75;1.10;;;7.00;99.90;;;;;;4986176;28;20053;-96
2022/12/28 10:37:30;;;;;;;2.15;1.08;;;7.10;99.90;;;;;;5003441;28;20043;-95
2022/12/28 10:39:57;;;;;;;;;;;7.20;99.90;;;;;;5008337;28;20050;-95
2022/12/28 10:42:37;;;;;;;1.83;1.17;;;7.20;99.90;;;;;;4984547;28;19933;-95
2022/12/28 10:45:14;;;;;;;0.85;0.73;;;7.30;99.90;;;;;;5007810;28;20078;-94
2022/12/28 10:47:43;;;;;;;2.05;0.90;;;7.30;99.90;;;;;;4985636;28;20522;-94
2022/12/28 10:50:43;;;;;;;0.70;0.70;;;7.40;99.90;;;;;;4985692;28;20049;-94
2022/12/28 10:53:49;;;;;;;1.23;0.90;;;7.40;99.90;;;;;;4988253;28;20029;-94
2022/12/28 10:56:23;;;;;;;2.10;0.90;;;7.50;99.90;;;;;;4984293;28;20144;-94
2022/12/28 10:58:54;;;;;;;1.10;0.77;;;7.60;99.90;;;;;;4998350;28;20028;-94
2022/12/28 11:01:25;;;;;;;1.02;0.88;;;7.70;99.90;;;;;;5001437;28;20081;-94
2022/12/28 11:03:54;;;;;;;1.75;0.80;;;7.70;99.90;;;;;;5003398;28;20038;-94
2022/12/28 11:06:28;;;;;;;0.98;0.95;;;7.80;99.90;;;;;;4984722;28;20109;-93
2022/12/28 11:09:22;;;;;;;1.17;0.70;;;7.90;99.90;;;;;;4997552;28;20480;-93
2022/12/28 11:11:49;;;;;;;1.13;0.85;;;8.00;99.90;;;;;;4969000;28;20059;-94
2022/12/28 11:14:35;;;;;;;1.83;1.17;;;8.10;99.90;;;;;;4995746;28;20483;-91
2022/12/28 11:17:14;;;;;;;1.30;1.00;;;8.20;99.90;;;;;;4992562;28;20081;-94
2022/12/28 11:19:39;;;;;;;0.85;0.82;;;8.20;99.90;;;;;;5000178;28;20026;-94
2022/12/28 11:22:12;;;;;;;1.17;0.85;;;8.30;99.90;;;;;;5004279;28;20029;-92
2022/12/28 11:24:39;;;;;;;0.93;0.80;;;8.40;99.90;;;;;;4978620;28;20081;-92
2022/12/28 11:27:08;;;;;;;1.08;0.70;;;8.40;99.90;;;;;;4998431;28;20054;-92
2022/12/28 11:29:34;;;;;;;0.68;0.60;;;8.50;99.90;;;;;;4993352;28;20058;-92
2022/12/28 11:32:07;;;;;;;1.85;0.65;;;8.50;99.90;;;;;;4978279;28;20491;-94
2022/12/28 11:34:36;;;;;;;0.52;0.52;;;8.60;99.90;;;;;;4994086;28;20027;-95
2022/12/28 11:37:02;;;;;;;0.65;0.60;;;8.70;99.90;;;;;;4996963;28;20073;-94
2022/12/28 11:39:27;;;;;;;0.85;0.60;;;8.70;99.90;;;;;;4998324;28;20022;-94
2022/12/28 11:41:59;;;;;;;0.88;0.40;;;8.70;99.90;;;;;;4993472;28;20051;-95
2022/12/28 11:44:34;;;;;;;0.20;0.20;;;8.80;99.90;;;;;;4979582;28;20061;-94
2022/12/28 11:47:14;;;;;;;0.38;0.28;;;8.80;99.90;;;;;;4995108;28;20027;-93
2022/12/28 11:49:43;;;;;;;1.30;0.28;;;8.90;99.90;;;;;;4987160;28;20030;-91
2022/12/28 11:52:22;;;;;;;1.13;0.43;;;8.90;99.90;;;;;;4977278;28;20043;-93
2022/12/28 11:54:56;;;;;;;1.13;0.65;;;8.90;99.90;;;;;;4978954;28;20034;-93
2022/12/28 11:57:42;;;;;;;2.08;0.85;;;9.00;99.90;;;;;;4978183;28;20034;-93
2022/12/28 12:00:19;;;;;;;3.22;0.90;;;9.00;99.90;;;;;;4976320;28;20923;-94
2022/12/28 12:02:55;;;;;;;1.25;0.40;;;9.00;99.90;;;;;;4979796;28;20073;-93
2022/12/28 12:05:39;;;;;;;0.90;0.63;;;9.00;99.90;;;;;;4983710;28;20033;-95
2022/12/28 12:08:14;;;;;;;2.45;0.50;;;9.00;99.90;;;;;;4979629;28;20035;-96
2022/12/28 12:10:47;;;;;;;1.17;0.60;;;9.10;99.90;;;;;;4986048;28;20037;-95
2022/12/28 12:13:25;;;;;;;4.82;0.63;;;9.00;99.90;;;;;;4982936;28;20027;-95
2022/12/28 12:16:04;;;;;;;0.95;0.45;;;9.10;99.90;;;;;;4986600;28;20022;-95
2022/12/28 12:18:43;;;;;;;1.08;0.45;;;9.00;99.90;;;;;;4985165;28;20095;-94
2022/12/28 12:21:21;;;;;;;4.13;0.70;;;9.00;99.90;;;;;;4984394;28;20070;-95
2022/12/28 12:23:55;;;;;;;1.23;0.60;;;9.00;99.90;;;;;;4988848;28;20029;-95
2022/12/28 12:26:28;;;;;;;1.15;0.50;;;9.00;99.90;;;;;;4989724;28;20023;-95
2022/12/28 12:29:16;;;;;;;3.65;1.10;;;9.00;99.90;;;;;;4985401;28;20070;-94
2022/12/28 12:32:01;;;;;;;3.17;0.98;;;9.00;99.90;;;;;;4987347;28;20022;-93
2022/12/28 12:34:33;;;;;;;2.70;0.60;;;9.00;99.90;;;;;;4985365;28;20054;-95
2022/12/28 12:37:29;;;;;;;2.55;0.75;;;9.00;99.90;;;;;;4988290;28;20086;-94
2022/12/28 12:40:13;;;;;;;2.78;0.60;;;9.00;99.90;;;;;;4986572;28;20057;-95
2022/12/28 12:42:57;;;;;;;3.08;0.60;;;9.00;99.90;;;;;;4985719;28;20050;-95
2022/12/28 12:45:29;;;;;;;1.38;0.20;;;9.00;99.90;;;;;;4984551;28;20023;-95
2022/12/28 12:48:09;;;;;;;2.67;0.80;;;9.00;99.90;;;;;;4983130;28;20027;-94
2022/12/28 12:51:04;;;;;;;1.00;0.60;;;9.10;99.90;;;;;;4987270;28;20031;-96
2022/12/28 12:53:48;;;;;;;1.65;0.50;;;9.10;99.90;;;;;;4987790;28;20492;-95
2022/12/28 12:56:38;;;;;;;1.50;0.43;;;9.10;99.90;;;;;;4984296;28;20023;-94
2022/12/28 12:59:07;;;;;;;2.00;0.47;;;9.10;99.90;;;;;;4993393;28;20038;-96
2022/12/28 13:01:45;;;;;;;0.28;0.20;;;9.10;99.90;;;;;;4990562;28;20034;-95
2022/12/28 13:04:23;;;;;;;5.40;2.03;;;9.10;99.90;;;;;;4986739;28;20027;-94
2022/12/28 13:06:54;;;;;;;2.55;1.10;;;9.20;99.90;;;;;;4990448;28;20042;-96
2022/12/28 13:09:26;;;;;;;1.85;0.88;;;9.20;99.90;;;;;;4990060;28;20050;-96
2022/12/28 13:11:53;;;;;;;0.95;0.47;;;9.20;99.90;;;;;;4985400;28;20027;-95
2022/12/28 13:14:23;;;;;;;0.60;0.57;;;9.20;99.90;;;;;;4984593;28;20027;-95
2022/12/28 13:16:57;;;;;;;3.80;0.70;;;9.20;99.90;;;;;;4988292;28;20026;-95
2022/12/28 13:19:26;;;;;;;0.63;0.47;;;9.30;99.90;;;;;;4990376;28;20031;-95
2022/12/28 13:21:53;;;;;;;1.58;0.82;;;9.30;99.90;;;;;;4992097;28;20031;-94
2022/12/28 13:24:34;;;;;;;1.42;0.32;;;9.30;99.90;;;;;;4995174;28;20033;-96
2022/12/28 13:27:02;;;;;;;1.63;0.40;;;9.30;99.90;;;;;;4988530;28;20022;-94
2022/12/28 13:29:37;;;;;;;0.95;0.63;;;9.30;99.90;;;;;;4988053;28;20468;-95
2022/12/28 13:32:03;;;;;;;0.90;0.25;;;9.30;99.90;;;;;;4984327;28;20038;-95
2022/12/28 13:34:34;;;;;;;2.17;0.77;;;9.30;99.90;;;;;;4985216;28;20027;-91
2022/12/28 13:37:00;;;;;;;;;;;9.30;99.90;;;;;;4976311;28;20031;-92
2022/12/28 13:39:28;;;;;;;4.10;0.50;;;9.30;99.90;;;;;;4976928;28;19978;-90